sensor_id;sensor_type;location;lat;lon;timestamp;pressure;altitude;pressure_sealevel;temperature;humidity
71107;BME280;58763;47.982;11.516;2022-09-01T00:02:14;94400.63;;;15.08;80.88
71107;BME280;58763;47.982;11.516;2022-09-01T00:04:43;94400.72;;;15.03;80.92
71107;BME280;58763;47.982;11.516;2022-09-01T00:07:11;94395.28;;;15.03;81.08
71107;BME280;58763;47.982;11.516;2022-09-01T00:09:37;94397.41;;;15.06;80.88
71107;BME280;58763;47.982;11.516;2022-09-01T00:12:06;94391.47;;;15.04;80.78
71107;BME280;58763;47.982;11.516;2022-09-01T00:14:35;94403.88;;;14.96;80.89
71107;BME280;58763;47.982;11.516;2022-09-01T00:17:04;94396.97;;;14.90;81.56
71107;BME280;58763;47.982;11.516;2022-09-01T00:19:30;94405.44;;;14.89;81.41
71107;BME280;58763;47.982;11.516;2022-09-01T00:21:58;94393.34;;;14.81;81.82
71107;BME280;58763;47.982;11.516;2022-09-01T00:24:25;94394.28;;;14.77;81.86
71107;BME280;58763;47.982;11.516;2022-09-01T00:26:52;94393.03;;;14.83;82.40
71107;BME280;58763;47.982;11.516;2022-09-01T00:29:17;94396.97;;;14.90;81.45
71107;BME280;58763;47.982;11.516;2022-09-01T00:31:43;94392.81;;;14.93;81.75
71107;BME280;58763;47.982;11.516;2022-09-01T00:34:09;94388.69;;;14.95;82.00
71107;BME280;58763;47.982;11.516;2022-09-01T00:36:35;94395.81;;;14.91;81.84
71107;BME280;58763;47.982;11.516;2022-09-01T00:39:02;94394.56;;;14.89;82.61
71107;BME280;58763;47.982;11.516;2022-09-01T00:41:30;94393.78;;;14.75;82.41
71107;BME280;58763;47.982;11.516;2022-09-01T00:44:03;94394.97;;;14.69;82.93
71107;BME280;58763;47.982;11.516;2022-09-01T00:46:50;94388.63;;;14.73;83.01
71107;BME280;58763;47.982;11.516;2022-09-01T00:49:21;94396.78;;;14.73;83.09
71107;BME280;58763;47.982;11.516;2022-09-01T00:51:50;94395.59;;;14.66;83.30
71107;BME280;58763;47.982;11.516;2022-09-01T00:54:22;94389.03;;;14.67;83.11
71107;BME280;58763;47.982;11.516;2022-09-01T00:56:49;94397.22;;;14.67;83.19
71107;BME280;58763;47.982;11.516;2022-09-01T00:59:16;94396.19;;;14.76;83.10
71107;BME280;58763;47.982;11.516;2022-09-01T01:01:43;94396.75;;;14.87;82.89
71107;BME280;58763;47.982;11.516;2022-09-01T01:04:09;94399.28;;;14.83;83.24
71107;BME280;58763;47.982;11.516;2022-09-01T01:06:44;94398.97;;;14.85;82.70
71107;BME280;58763;47.982;11.516;2022-09-01T01:09:18;94395.97;;;14.86;82.54
71107;BME280;58763;47.982;11.516;2022-09-01T01:11:44;94398.38;;;14.88;82.80
71107;BME280;58763;47.982;11.516;2022-09-01T01:14:12;94398.88;;;14.90;82.92
71107;BME280;58763;47.982;11.516;2022-09-01T01:16:45;94388.78;;;14.90;82.49
71107;BME280;58763;47.982;11.516;2022-09-01T01:19:27;94384.25;;;14.86;82.38
71107;BME280;58763;47.982;11.516;2022-09-01T01:22:28;94379.09;;;14.84;82.48
71107;BME280;58763;47.982;11.516;2022-09-01T01:25:14;94383.53;;;14.94;82.03
71107;BME280;58763;47.982;11.516;2022-09-01T01:27:43;94380.41;;;15.00;81.92
71107;BME280;58763;47.982;11.516;2022-09-01T01:30:11;94372.88;;;15.06;81.54
71107;BME280;58763;47.982;11.516;2022-09-01T01:32:38;94369.69;;;15.04;81.54
71107;BME280;58763;47.982;11.516;2022-09-01T01:35:11;94384.41;;;15.03;81.59
71107;BME280;58763;47.982;11.516;2022-09-01T01:37:41;94372.03;;;14.97;81.59
71107;BME280;58763;47.982;11.516;2022-09-01T01:40:11;94370.44;;;14.96;81.82
71107;BME280;58763;47.982;11.516;2022-09-01T01:42:48;94371.78;;;15.07;81.58
71107;BME280;58763;47.982;11.516;2022-09-01T01:45:17;94369.56;;;15.09;81.43
71107;BME280;58763;47.982;11.516;2022-09-01T01:47:44;94374.41;;;15.12;81.12
71107;BME280;58763;47.982;11.516;2022-09-01T01:50:29;94371.47;;;15.08;81.33
71107;BME280;58763;47.982;11.516;2022-09-01T01:53:03;94377.16;;;14.98;81.22
71107;BME280;58763;47.982;11.516;2022-09-01T01:55:29;94379.50;;;14.91;81.66
71107;BME280;58763;47.982;11.516;2022-09-01T01:57:57;94381.22;;;14.87;81.70
71107;BME280;58763;47.982;11.516;2022-09-01T02:00:27;94370.22;;;14.92;81.94
71107;BME280;58763;47.982;11.516;2022-09-01T02:02:54;94373.94;;;14.96;81.85
71107;BME280;58763;47.982;11.516;2022-09-01T02:05:28;94378.88;;;14.94;81.95
71107;BME280;58763;47.982;11.516;2022-09-01T02:07:58;94382.41;;;14.95;81.96
71107;BME280;58763;47.982;11.516;2022-09-01T02:10:28;94378.38;;;14.92;81.83
71107;BME280;58763;47.982;11.516;2022-09-01T02:12:55;94374.84;;;14.92;82.01
71107;BME280;58763;47.982;11.516;2022-09-01T02:15:40;94374.94;;;15.00;81.52
71107;BME280;58763;47.982;11.516;2022-09-01T02:20:41;94384.03;;;14.96;81.53
71107;BME280;58763;47.982;11.516;2022-09-01T02:23:06;94380.31;;;14.92;81.50
71107;BME280;58763;47.982;11.516;2022-09-01T02:25:38;94377.09;;;14.90;81.97
71107;BME280;58763;47.982;11.516;2022-09-01T02:28:09;94378.06;;;14.94;81.17
71107;BME280;58763;47.982;11.516;2022-09-01T02:30:45;94375.25;;;14.99;80.83
71107;BME280;58763;47.982;11.516;2022-09-01T02:33:11;94377.78;;;14.95;81.37
71107;BME280;58763;47.982;11.516;2022-09-01T02:35:43;94378.94;;;15.03;81.01
71107;BME280;58763;47.982;11.516;2022-09-01T02:38:09;94374.13;;;15.00;80.86
71107;BME280;58763;47.982;11.516;2022-09-01T02:40:39;94362.25;;;14.96;80.95
71107;BME280;58763;47.982;11.516;2022-09-01T02:43:05;94375.78;;;14.87;80.81
71107;BME280;58763;47.982;11.516;2022-09-01T02:45:32;94379.63;;;14.86;80.81
71107;BME280;58763;47.982;11.516;2022-09-01T02:47:58;94378.72;;;14.91;80.59
71107;BME280;58763;47.982;11.516;2022-09-01T02:50:24;94381.44;;;14.77;80.77
71107;BME280;58763;47.982;11.516;2022-09-01T02:52:51;94372.56;;;14.85;80.91
71107;BME280;58763;47.982;11.516;2022-09-01T02:55:17;94376.31;;;14.76;81.08
71107;BME280;58763;47.982;11.516;2022-09-01T02:57:49;94383.38;;;14.77;81.01
71107;BME280;58763;47.982;11.516;2022-09-01T03:00:17;94378.53;;;14.74;81.18
71107;BME280;58763;47.982;11.516;2022-09-01T03:02:51;94369.81;;;14.63;81.12
71107;BME280;58763;47.982;11.516;2022-09-01T03:05:21;94372.22;;;14.65;81.29
71107;BME280;58763;47.982;11.516;2022-09-01T03:07:53;94369.38;;;14.70;81.02
71107;BME280;58763;47.982;11.516;2022-09-01T03:10:22;94362.81;;;14.71;81.07
71107;BME280;58763;47.982;11.516;2022-09-01T03:12:51;94364.75;;;14.57;81.43
71107;BME280;58763;47.982;11.516;2022-09-01T03:15:17;94370.22;;;14.57;81.38
71107;BME280;58763;47.982;11.516;2022-09-01T03:17:42;94370.84;;;14.53;81.54
71107;BME280;58763;47.982;11.516;2022-09-01T03:20:08;94364.16;;;14.60;81.40
71107;BME280;58763;47.982;11.516;2022-09-01T03:22:34;94359.22;;;14.62;81.03
71107;BME280;58763;47.982;11.516;2022-09-01T03:24:59;94362.16;;;14.65;80.77
71107;BME280;58763;47.982;11.516;2022-09-01T03:27:25;94365.53;;;14.71;80.55
71107;BME280;58763;47.982;11.516;2022-09-01T03:29:50;94365.03;;;14.69;80.40
71107;BME280;58763;47.982;11.516;2022-09-01T03:32:15;94359.31;;;14.70;80.62
71107;BME280;58763;47.982;11.516;2022-09-01T03:34:41;94369.47;;;14.78;79.96
71107;BME280;58763;47.982;11.516;2022-09-01T03:37:06;94365.53;;;14.71;80.41
71107;BME280;58763;47.982;11.516;2022-09-01T03:39:34;94350.84;;;14.72;80.13
71107;BME280;58763;47.982;11.516;2022-09-01T03:41:59;94355.34;;;14.76;79.77
71107;BME280;58763;47.982;11.516;2022-09-01T03:44:25;94356.06;;;14.68;79.71
71107;BME280;58763;47.982;11.516;2022-09-01T03:46:51;94342.66;;;14.72;79.39
71107;BME280;58763;47.982;11.516;2022-09-01T03:49:17;94341.69;;;14.68;79.40
71107;BME280;58763;47.982;11.516;2022-09-01T03:51:49;94348.03;;;14.63;79.51
71107;BME280;58763;47.982;11.516;2022-09-01T03:54:18;94346.59;;;14.66;79.52
71107;BME280;58763;47.982;11.516;2022-09-01T03:56:44;94343.81;;;14.57;79.05
71107;BME280;58763;47.982;11.516;2022-09-01T03:59:09;94347.84;;;14.60;79.28
71107;BME280;58763;47.982;11.516;2022-09-01T04:01:41;94341.16;;;14.66;79.08
71107;BME280;58763;47.982;11.516;2022-09-01T04:04:11;94340.38;;;14.65;78.53
71107;BME280;58763;47.982;11.516;2022-09-01T04:06:39;94336.94;;;14.60;79.01
71107;BME280;58763;47.982;11.516;2022-09-01T04:09:06;94327.16;;;14.59;79.19
71107;BME280;58763;47.982;11.516;2022-09-01T04:11:31;94331.50;;;14.60;79.07
71107;BME280;58763;47.982;11.516;2022-09-01T04:13:58;94326.50;;;14.53;79.26
71107;BME280;58763;47.982;11.516;2022-09-01T04:16:31;94327.91;;;14.50;79.26
71107;BME280;58763;47.982;11.516;2022-09-01T04:19:17;94329.53;;;14.38;79.90
71107;BME280;58763;47.982;11.516;2022-09-01T04:21:55;94334.97;;;14.38;79.65
71107;BME280;58763;47.982;11.516;2022-09-01T04:24:23;94333.16;;;14.33;79.61
71107;BME280;58763;47.982;11.516;2022-09-01T04:26:52;94331.66;;;14.27;80.41
71107;BME280;58763;47.982;11.516;2022-09-01T04:29:20;94335.28;;;14.23;80.04
71107;BME280;58763;47.982;11.516;2022-09-01T04:31:52;94336.28;;;14.13;80.54
71107;BME280;58763;47.982;11.516;2022-09-01T04:34:22;94338.41;;;14.16;80.24
71107;BME280;58763;47.982;11.516;2022-09-01T04:36:49;94340.59;;;14.14;80.67
71107;BME280;58763;47.982;11.516;2022-09-01T04:39:17;94338.91;;;14.18;80.41
71107;BME280;58763;47.982;11.516;2022-09-01T04:41:44;94343.31;;;14.14;80.47
71107;BME280;58763;47.982;11.516;2022-09-01T04:44:11;94345.53;;;14.12;80.78
71107;BME280;58763;47.982;11.516;2022-09-01T04:46:40;94342.94;;;14.21;80.38
71107;BME280;58763;47.982;11.516;2022-09-01T04:49:07;94340.00;;;14.17;80.50
71107;BME280;58763;47.982;11.516;2022-09-01T04:51:42;94339.63;;;14.10;80.94
71107;BME280;58763;47.982;11.516;2022-09-01T04:54:09;94342.66;;;14.09;80.57
71107;BME280;58763;47.982;11.516;2022-09-01T04:56:40;94350.09;;;14.03;80.46
71107;BME280;58763;47.982;11.516;2022-09-01T04:59:08;94343.47;;;14.09;81.19
71107;BME280;58763;47.982;11.516;2022-09-01T05:01:36;94349.91;;;14.00;81.31
71107;BME280;58763;47.982;11.516;2022-09-01T05:04:09;94349.09;;;13.99;81.37
71107;BME280;58763;47.982;11.516;2022-09-01T05:06:39;94352.22;;;13.93;81.46
71107;BME280;58763;47.982;11.516;2022-09-01T05:09:06;94350.91;;;13.90;81.77
71107;BME280;58763;47.982;11.516;2022-09-01T05:11:34;94345.06;;;13.83;81.35
71107;BME280;58763;47.982;11.516;2022-09-01T05:14:00;94357.03;;;13.82;81.67
71107;BME280;58763;47.982;11.516;2022-09-01T05:16:27;94352.91;;;13.71;82.18
71107;BME280;58763;47.982;11.516;2022-09-01T05:18:52;94353.97;;;13.56;82.35
71107;BME280;58763;47.982;11.516;2022-09-01T05:21:22;94352.28;;;13.60;82.23
71107;BME280;58763;47.982;11.516;2022-09-01T05:23:50;94354.13;;;13.65;82.25
71107;BME280;58763;47.982;11.516;2022-09-01T05:26:25;94362.28;;;13.78;82.16
71107;BME280;58763;47.982;11.516;2022-09-01T05:28:57;94358.75;;;13.78;81.42
71107;BME280;58763;47.982;11.516;2022-09-01T05:31:24;94357.84;;;13.82;81.53
71107;BME280;58763;47.982;11.516;2022-09-01T05:33:52;94356.53;;;13.94;81.25
71107;BME280;58763;47.982;11.516;2022-09-01T05:36:22;94355.34;;;13.86;81.38
71107;BME280;58763;47.982;11.516;2022-09-01T05:38:48;94352.22;;;13.93;81.06
71107;BME280;58763;47.982;11.516;2022-09-01T05:41:16;94350.81;;;13.95;81.16
71107;BME280;58763;47.982;11.516;2022-09-01T05:43:44;94351.91;;;13.94;80.73
71107;BME280;58763;47.982;11.516;2022-09-01T05:46:18;94351.50;;;14.01;80.47
71107;BME280;58763;47.982;11.516;2022-09-01T05:48:46;94352.31;;;14.01;80.70
71107;BME280;58763;47.982;11.516;2022-09-01T05:51:15;94349.50;;;14.06;80.68
71107;BME280;58763;47.982;11.516;2022-09-01T05:53:44;94349.19;;;14.08;79.97
71107;BME280;58763;47.982;11.516;2022-09-01T05:56:12;94343.44;;;13.96;80.42
71107;BME280;58763;47.982;11.516;2022-09-01T05:58:39;94347.88;;;13.92;80.93
71107;BME280;58763;47.982;11.516;2022-09-01T06:01:07;94352.50;;;13.91;81.68
71107;BME280;58763;47.982;11.516;2022-09-01T06:03:35;94353.44;;;14.00;81.67
71107;BME280;58763;47.982;11.516;2022-09-01T06:06:03;94350.69;;;14.14;80.58
71107;BME280;58763;47.982;11.516;2022-09-01T06:08:29;94361.38;;;14.10;80.33
71107;BME280;58763;47.982;11.516;2022-09-01T06:10:55;94355.75;;;14.07;81.00
71107;BME280;58763;47.982;11.516;2022-09-01T06:13:20;94357.44;;;14.03;80.87
71107;BME280;58763;47.982;11.516;2022-09-01T06:15:47;94351.31;;;14.11;80.76
71107;BME280;58763;47.982;11.516;2022-09-01T06:18:14;94359.78;;;14.09;81.09
71107;BME280;58763;47.982;11.516;2022-09-01T06:20:42;94358.22;;;14.17;81.31
71107;BME280;58763;47.982;11.516;2022-09-01T06:23:09;94362.25;;;14.19;79.70
71107;BME280;58763;47.982;11.516;2022-09-01T06:25:46;94361.56;;;14.27;80.38
71107;BME280;58763;47.982;11.516;2022-09-01T06:28:16;94371.97;;;14.39;80.79
71107;BME280;58763;47.982;11.516;2022-09-01T06:30:44;94360.47;;;14.42;80.50
71107;BME280;58763;47.982;11.516;2022-09-01T06:33:12;94359.47;;;14.38;78.88
71107;BME280;58763;47.982;11.516;2022-09-01T06:35:42;94355.13;;;14.23;79.96
71107;BME280;58763;47.982;11.516;2022-09-01T06:38:09;94357.25;;;13.99;81.14
71107;BME280;58763;47.982;11.516;2022-09-01T06:40:36;94363.38;;;14.18;81.26
71107;BME280;58763;47.982;11.516;2022-09-01T06:43:05;94360.34;;;14.20;80.87
71107;BME280;58763;47.982;11.516;2022-09-01T06:45:38;94369.44;;;14.15;80.17
71107;BME280;58763;47.982;11.516;2022-09-01T06:48:05;94366.41;;;14.03;80.53
71107;BME280;58763;47.982;11.516;2022-09-01T06:50:31;94364.81;;;14.02;80.95
71107;BME280;58763;47.982;11.516;2022-09-01T06:52:56;94365.22;;;14.09;80.64
71107;BME280;58763;47.982;11.516;2022-09-01T06:55:34;94363.38;;;14.18;79.96
71107;BME280;58763;47.982;11.516;2022-09-01T06:58:05;94373.78;;;14.16;79.69
71107;BME280;58763;47.982;11.516;2022-09-01T07:00:33;94372.66;;;14.17;79.27
71107;BME280;58763;47.982;11.516;2022-09-01T07:03:02;94378.09;;;14.31;79.36
71107;BME280;58763;47.982;11.516;2022-09-01T07:05:36;94383.94;;;14.38;78.76
71107;BME280;58763;47.982;11.516;2022-09-01T07:08:03;94375.38;;;14.58;79.07
71107;BME280;58763;47.982;11.516;2022-09-01T07:10:32;94379.25;;;14.66;77.73
71107;BME280;58763;47.982;11.516;2022-09-01T07:12:57;94381.06;;;14.84;77.61
71107;BME280;58763;47.982;11.516;2022-09-01T07:15:24;94385.16;;;14.95;76.29
71107;BME280;58763;47.982;11.516;2022-09-01T07:17:53;94378.94;;;15.03;76.68
71107;BME280;58763;47.982;11.516;2022-09-01T07:20:22;94381.00;;;15.19;76.53
71107;BME280;58763;47.982;11.516;2022-09-01T07:22:49;94382.03;;;15.23;74.89
71107;BME280;58763;47.982;11.516;2022-09-01T07:25:15;94384.47;;;15.34;75.06
71107;BME280;58763;47.982;11.516;2022-09-01T07:27:42;94382.06;;;15.32;73.71
71107;BME280;58763;47.982;11.516;2022-09-01T07:30:13;94386.91;;;15.35;73.41
71107;BME280;58763;47.982;11.516;2022-09-01T07:32:39;94380.28;;;15.28;72.65
71107;BME280;58763;47.982;11.516;2022-09-01T07:35:12;94387.06;;;15.39;73.79
71107;BME280;58763;47.982;11.516;2022-09-01T07:37:38;94384.16;;;15.49;75.29
71107;BME280;58763;47.982;11.516;2022-09-01T07:40:07;94390.41;;;15.49;74.75
71107;BME280;58763;47.982;11.516;2022-09-01T07:42:33;94391.78;;;15.69;74.96
71107;BME280;58763;47.982;11.516;2022-09-01T07:44:58;94392.06;;;15.59;74.10
71107;BME280;58763;47.982;11.516;2022-09-01T07:47:25;94396.44;;;15.68;73.94
71107;BME280;58763;47.982;11.516;2022-09-01T07:49:52;94394.59;;;15.77;72.81
71107;BME280;58763;47.982;11.516;2022-09-01T07:52:18;94390.75;;;15.87;72.79
71107;BME280;58763;47.982;11.516;2022-09-01T07:54:44;94402.34;;;15.93;73.76
71107;BME280;58763;47.982;11.516;2022-09-01T07:57:10;94397.97;;;15.83;72.98
71107;BME280;58763;47.982;11.516;2022-09-01T07:59:35;94401.75;;;15.96;72.47
71107;BME280;58763;47.982;11.516;2022-09-01T08:02:01;94399.97;;;16.00;72.52
71107;BME280;58763;47.982;11.516;2022-09-01T08:04:28;94397.97;;;16.14;73.85
71107;BME280;58763;47.982;11.516;2022-09-01T08:06:53;94403.31;;;16.27;72.98
71107;BME280;58763;47.982;11.516;2022-09-01T08:09:20;94406.22;;;16.31;71.13
71107;BME280;58763;47.982;11.516;2022-09-01T08:11:45;94401.38;;;16.28;70.10
71107;BME280;58763;47.982;11.516;2022-09-01T08:14:10;94410.34;;;16.20;69.43
71107;BME280;58763;47.982;11.516;2022-09-01T08:16:36;94410.88;;;16.30;70.81
71107;BME280;58763;47.982;11.516;2022-09-01T08:19:02;94414.41;;;16.31;69.59
71107;BME280;58763;47.982;11.516;2022-09-01T08:21:27;94413.41;;;16.27;70.19
71107;BME280;58763;47.982;11.516;2022-09-01T08:23:54;94409.91;;;16.26;70.54
71107;BME280;58763;47.982;11.516;2022-09-01T08:26:22;94420.00;;;16.26;71.33
71107;BME280;58763;47.982;11.516;2022-09-01T08:28:52;94421.16;;;16.33;72.50
71107;BME280;58763;47.982;11.516;2022-09-01T08:31:18;94418.44;;;16.33;70.66
71107;BME280;58763;47.982;11.516;2022-09-01T08:33:45;94430.00;;;16.39;70.09
71107;BME280;58763;47.982;11.516;2022-09-01T08:36:13;94423.94;;;16.50;70.82
71107;BME280;58763;47.982;11.516;2022-09-01T08:38:40;94410.03;;;16.52;69.88
71107;BME280;58763;47.982;11.516;2022-09-01T08:41:15;94419.19;;;16.65;70.98
71107;BME280;58763;47.982;11.516;2022-09-01T08:44:03;94424.56;;;16.87;70.87
71107;BME280;58763;47.982;11.516;2022-09-01T08:46:38;94423.78;;;17.12;71.55
71107;BME280;58763;47.982;11.516;2022-09-01T08:49:28;94428.00;;;17.26;69.40
71107;BME280;58763;47.982;11.516;2022-09-01T08:51:59;94425.91;;;17.41;69.66
71107;BME280;58763;47.982;11.516;2022-09-01T08:54:50;94423.00;;;17.28;69.79
71107;BME280;58763;47.982;11.516;2022-09-01T08:57:30;94424.91;;;17.37;69.28
71107;BME280;58763;47.982;11.516;2022-09-01T08:59:56;94427.97;;;17.44;68.37
71107;BME280;58763;47.982;11.516;2022-09-01T09:02:36;94432.97;;;17.24;67.68
71107;BME280;58763;47.982;11.516;2022-09-01T09:07:54;94430.72;;;17.26;65.61
71107;BME280;58763;47.982;11.516;2022-09-01T09:10:26;94436.00;;;17.23;66.30
71107;BME280;58763;47.982;11.516;2022-09-01T09:15:43;94425.72;;;17.46;65.99
71107;BME280;58763;47.982;11.516;2022-09-01T09:21:32;94434.09;;;17.49;66.28
71107;BME280;58763;47.982;11.516;2022-09-01T09:24:31;94432.00;;;17.38;64.42
71107;BME280;58763;47.982;11.516;2022-09-01T09:30:04;94428.63;;;17.49;64.05
71107;BME280;58763;47.982;11.516;2022-09-01T09:35:40;94433.38;;;18.12;65.58
71107;BME280;58763;47.982;11.516;2022-09-01T09:43:32;94423.66;;;18.32;64.09
71107;BME280;58763;47.982;11.516;2022-09-01T09:49:05;94427.66;;;18.43;60.30
71107;BME280;58763;47.982;11.516;2022-09-01T09:51:31;94418.97;;;18.32;58.34
71107;BME280;58763;47.982;11.516;2022-09-01T09:54:21;94420.06;;;18.48;61.08
71107;BME280;58763;47.982;11.516;2022-09-01T09:56:48;94427.94;;;18.41;59.58
71107;BME280;58763;47.982;11.516;2022-09-01T09:59:29;94421.81;;;18.44;59.46
71107;BME280;58763;47.982;11.516;2022-09-01T10:01:59;94421.13;;;18.65;62.96
71107;BME280;58763;47.982;11.516;2022-09-01T10:04:38;94419.47;;;18.72;61.24
71107;BME280;58763;47.982;11.516;2022-09-01T10:07:36;94421.38;;;18.80;60.54
71107;BME280;58763;47.982;11.516;2022-09-01T10:10:07;94418.44;;;18.85;60.03
71107;BME280;58763;47.982;11.516;2022-09-01T10:12:52;94418.38;;;18.94;60.64
71107;BME280;58763;47.982;11.516;2022-09-01T10:15:21;94412.44;;;18.92;60.09
71107;BME280;58763;47.982;11.516;2022-09-01T10:17:49;94418.38;;;18.94;60.73
71107;BME280;58763;47.982;11.516;2022-09-01T10:20:21;94413.13;;;19.09;60.69
71107;BME280;58763;47.982;11.516;2022-09-01T10:22:48;94422.34;;;19.05;60.09
71107;BME280;58763;47.982;11.516;2022-09-01T10:25:33;94412.06;;;19.02;60.93
71107;BME280;58763;47.982;11.516;2022-09-01T10:28:25;94417.66;;;19.05;60.93
71107;BME280;58763;47.982;11.516;2022-09-01T10:30:54;94419.59;;;19.05;60.06
71107;BME280;58763;47.982;11.516;2022-09-01T10:33:21;94417.19;;;19.03;59.67
71107;BME280;58763;47.982;11.516;2022-09-01T10:35:49;94417.47;;;19.10;60.85
71107;BME280;58763;47.982;11.516;2022-09-01T10:38:20;94419.34;;;19.18;59.49
71107;BME280;58763;47.982;11.516;2022-09-01T10:40:57;94418.75;;;19.33;59.22
71107;BME280;58763;47.982;11.516;2022-09-01T10:43:38;94410.19;;;19.35;57.19
71107;BME280;58763;47.982;11.516;2022-09-01T10:48:51;94415.88;;;19.30;57.19
71107;BME280;58763;47.982;11.516;2022-09-01T10:53:45;94412.00;;;19.31;58.24
71107;BME280;58763;47.982;11.516;2022-09-01T10:56:23;94414.94;;;19.26;57.40
71107;BME280;58763;47.982;11.516;2022-09-01T11:07:03;94412.94;;;19.14;56.95
71107;BME280;58763;47.982;11.516;2022-09-01T11:09:37;94417.81;;;19.29;57.25
71107;BME280;58763;47.982;11.516;2022-09-01T11:17:36;94413.09;;;19.39;54.99
71107;BME280;58763;47.982;11.516;2022-09-01T11:20:07;94406.25;;;19.65;56.19
71107;BME280;58763;47.982;11.516;2022-09-01T11:22:42;94401.06;;;19.84;56.91
71107;BME280;58763;47.982;11.516;2022-09-01T11:25:46;94401.56;;;19.66;55.33
71107;BME280;58763;47.982;11.516;2022-09-01T11:30:54;94410.47;;;19.42;55.51
71107;BME280;58763;47.982;11.516;2022-09-01T11:38:37;94403.13;;;19.34;56.07
71107;BME280;58763;47.982;11.516;2022-09-01T11:41:07;94408.59;;;19.34;56.86
71107;BME280;58763;47.982;11.516;2022-09-01T11:43:34;94403.88;;;19.43;57.68
71107;BME280;58763;47.982;11.516;2022-09-01T11:46:18;94393.09;;;19.59;53.52
71107;BME280;58763;47.982;11.516;2022-09-01T11:48:46;94398.06;;;19.77;54.95
71107;BME280;58763;47.982;11.516;2022-09-01T11:51:13;94389.44;;;19.87;55.71
71107;BME280;58763;47.982;11.516;2022-09-01T11:53:41;94383.31;;;20.15;55.83
71107;BME280;58763;47.982;11.516;2022-09-01T11:56:26;94385.91;;;20.32;52.55
71107;BME280;58763;47.982;11.516;2022-09-01T11:58:52;94382.13;;;20.48;53.74
71107;BME280;58763;47.982;11.516;2022-09-01T12:01:21;94387.31;;;20.74;53.35
71107;BME280;58763;47.982;11.516;2022-09-01T12:03:48;94382.72;;;20.78;50.12
71107;BME280;58763;47.982;11.516;2022-09-01T12:06:26;94394.97;;;21.05;50.13
71107;BME280;58763;47.982;11.516;2022-09-01T12:08:59;94391.72;;;21.27;51.58
71107;BME280;58763;47.982;11.516;2022-09-01T12:11:29;94379.88;;;21.39;49.53
71107;BME280;58763;47.982;11.516;2022-09-01T12:14:07;94385.66;;;21.21;49.51
71107;BME280;58763;47.982;11.516;2022-09-01T12:16:35;94388.00;;;21.47;48.39
71107;BME280;58763;47.982;11.516;2022-09-01T12:19:04;94375.00;;;21.60;48.74
71107;BME280;58763;47.982;11.516;2022-09-01T12:21:41;94382.72;;;21.82;48.32
71107;BME280;58763;47.982;11.516;2022-09-01T12:24:18;94384.97;;;21.92;48.24
71107;BME280;58763;47.982;11.516;2022-09-01T12:26:46;94386.84;;;21.88;49.30
71107;BME280;58763;47.982;11.516;2022-09-01T12:29:12;94391.72;;;21.67;45.29
71107;BME280;58763;47.982;11.516;2022-09-01T12:31:44;94393.69;;;21.54;46.48
71107;BME280;58763;47.982;11.516;2022-09-01T12:34:34;94393.34;;;21.16;47.37
71107;BME280;58763;47.982;11.516;2022-09-01T12:37:21;94385.63;;;21.33;48.23
71107;BME280;58763;47.982;11.516;2022-09-01T12:39:53;94380.41;;;21.56;48.62
71107;BME280;58763;47.982;11.516;2022-09-01T12:44:49;94384.13;;;21.76;47.46
71107;BME280;58763;47.982;11.516;2022-09-01T12:50:06;94381.22;;;22.12;48.22
71107;BME280;58763;47.982;11.516;2022-09-01T12:52:34;94383.00;;;22.20;46.30
71107;BME280;58763;47.982;11.516;2022-09-01T12:57:38;94380.63;;;22.34;46.18
71107;BME280;58763;47.982;11.516;2022-09-01T13:02:43;94373.22;;;22.07;46.07
71107;BME280;58763;47.982;11.516;2022-09-01T13:05:34;94360.88;;;22.17;45.48
71107;BME280;58763;47.982;11.516;2022-09-01T13:08:09;94370.78;;;22.33;46.55
71107;BME280;58763;47.982;11.516;2022-09-01T13:10:39;94366.84;;;22.50;45.43
71107;BME280;58763;47.982;11.516;2022-09-01T13:13:05;94367.75;;;22.69;45.80
71107;BME280;58763;47.982;11.516;2022-09-01T13:15:32;94369.41;;;22.90;47.04
71107;BME280;58763;47.982;11.516;2022-09-01T13:17:58;94369.88;;;22.92;46.28
71107;BME280;58763;47.982;11.516;2022-09-01T13:20:23;94370.03;;;22.99;46.71
71107;BME280;58763;47.982;11.516;2022-09-01T13:22:49;94373.72;;;22.72;46.07
71107;BME280;58763;47.982;11.516;2022-09-01T13:25:18;94377.25;;;22.88;46.69
71107;BME280;58763;47.982;11.516;2022-09-01T13:27:45;94368.19;;;22.87;46.43
71107;BME280;58763;47.982;11.516;2022-09-01T13:30:14;94364.88;;;22.97;45.03
71107;BME280;58763;47.982;11.516;2022-09-01T13:32:41;94362.59;;;23.18;44.46
71107;BME280;58763;47.982;11.516;2022-09-01T13:35:09;94362.59;;;23.18;42.16
71107;BME280;58763;47.982;11.516;2022-09-01T13:37:35;94361.97;;;23.25;43.56
71107;BME280;58763;47.982;11.516;2022-09-01T13:40:02;94362.22;;;23.01;43.14
71107;BME280;58763;47.982;11.516;2022-09-01T13:42:29;94363.69;;;23.14;44.50
71107;BME280;58763;47.982;11.516;2022-09-01T13:44:54;94359.47;;;23.20;43.42
71107;BME280;58763;47.982;11.516;2022-09-01T13:47:20;94359.72;;;23.30;43.96
71107;BME280;58763;47.982;11.516;2022-09-01T13:49:45;94362.13;;;23.32;43.76
71107;BME280;58763;47.982;11.516;2022-09-01T13:52:11;94356.41;;;23.06;42.00
71107;BME280;58763;47.982;11.516;2022-09-01T13:54:37;94353.72;;;22.75;42.25
71107;BME280;58763;47.982;11.516;2022-09-01T13:57:02;94360.44;;;22.93;43.37
71107;BME280;58763;47.982;11.516;2022-09-01T13:59:28;94350.09;;;23.05;42.59
71107;BME280;58763;47.982;11.516;2022-09-01T14:01:54;94350.28;;;23.31;44.28
71107;BME280;58763;47.982;11.516;2022-09-01T14:04:20;94346.63;;;23.62;44.89
71107;BME280;58763;47.982;11.516;2022-09-01T14:06:47;94345.03;;;23.61;43.42
71107;BME280;58763;47.982;11.516;2022-09-01T14:09:13;94344.38;;;23.49;43.79